Details From LICJ - Palermo
To LJLJ - Ljubljana
Flight Number -
Tags Decoded
Created
Modified
Stats Distance 512 nm / 948 km
Max Altitude 0 ft / 0 m
Waypoints 5
Social Downloads 0
Likes 0
Share VATSIM

Download

Looking for another format? Having issues loading an existing format? Contact us
Advertisement - Login to hide

Notes

Decoded

Route

LICJ DELER REBRO KAM LJLJ

ID Type Via Altitude Latitude Longitude Leg Dist Tot Dist Heading (true) Name
O LICJ APT - 0 ft / 0 m 38.16614˚ 13.08562˚ - 0 nm - -
DELER FIX - 0 ft / 0 m 40.18500˚ 14.14917˚ 130 nm 130 nm 22° / 23° -
REBRO FIX - 0 ft / 0 m 46.11284˚ 14.37304˚ 356 nm 487 nm 2° / 2° -
KAM NDB - 0 ft / 0 m 46.10500˚ 14.67546˚ 12 nm 499 nm 92° / 92° DOLSKO NDB
O LJLJ APT - 0 ft / 0 m 46.23249˚ 14.44039˚ 12 nm 512 nm 308° / 308° -

Altitude Profile

Advertisement - Login to hide

Weather


0- 5 10 15 20 25 30 35+ Temperature / ° C

Clouds and Precipitation
Forecast for 2017-12-14 18:00 UTC. Updated 29 minutes ago

Ground ~20,000 ft ~40,000 ft Winds

LICJ

Details ICAO LICJ (PMO)
Name PALERMO
Region Italy
Timezone Europe/Rome (UTC+1.0)
Stats Elevation 65 ft / 20 m (AMSL)
Location 38.177377° 13.097035°
Runways 2
Magnetic Variation 2.950° E

METAR

LICJ 141320Z 27012KT 9999 FEW025 SCT050 16/10 Q1020

Decode

TAF

TAF LICJ 141100Z 1412/1512 25018KT 9999 SCT025 BECMG 1416/1418 19016KT

Decode

Departure Runways

ID Width Length Bearing (true) Bearing (mag) Surface Threshold Offset Overrun Length
02 148 ft / 45 m 6,813 ft / 2,077 m 23.81° 20.86° Asphalt 10 ft / 3 m 0 ft / 0 m
07 197 ft / 60 m 10,685 ft / 3,257 m 66.82° 63.87° Asphalt 404 ft / 123 m 0 ft / 0 m
20 148 ft / 45 m 6,813 ft / 2,077 m 203.81° 200.86° Asphalt 10 ft / 3 m 0 ft / 0 m
25 197 ft / 60 m 10,685 ft / 3,257 m 246.85° 243.90° Asphalt 679 ft / 207 m 0 ft / 0 m

LJLJ

Details ICAO LJLJ (LJU)
Name LJUBLJANA
Region Slovenia
Timezone Europe/Ljubljana (UTC+1.0)
Stats Elevation 1,273 ft / 388 m (AMSL)
Location 46.223685° 14.457608°
Runways 1
Magnetic Variation 3.662° E

METAR

LJLJ 141330Z 00000KT 9999 -RA SCT018 BKN030 05/05 Q1005 NOSIG

Decode

TAF

TAF TAF LJLJ 140800Z 1409/1509 27005KT 9999 BKN030 TEMPO 1409/1413 -RA TEMPO 1412/1418 27010KT SCT035 TEMPO 1420/1509 7000 SHRA SCT030TCU BKN035 BECMG 1503/1506 7000 -RA SCT010 BKN020

Decode

Destination Runways

ID Width Length Bearing (true) Bearing (mag) Surface Threshold Offset Overrun Length
13 148 ft / 45 m 10,811 ft / 3,295 m 126.47° 122.81° Asphalt 0 ft / 0 m 0 ft / 0 m
31 148 ft / 45 m 10,811 ft / 3,295 m 306.49° 302.83° Asphalt 0 ft / 0 m 0 ft / 0 m

Approach Navaids

Runway Type Ident Frequency Range Bearing (true) Bearing (mag) Slope Elevation
31 Localiser LJB 110.50 MHz 18 nm / 33 km 306.46° 302.80° - 1,282 ft / 391 m (AMSL)
31 Glidescope LJB 110.50 MHz 10 nm / 19 km 306.48° 302.82° 3.00° 1,198 ft / 365 m (AMSL)
31 DME LJB 110.50 MHz 18 nm / 33 km - - - 1,198 ft / 365 m (AMSL)